Time;durP1;ratioP1;P1;durP2;ratioP2;P2;SDS_P1;SDS_P2;PMS_P1;PMS_P2;Temp;Humidity;BMP_temperature;BMP_pressure;BME280_temperature;BME280_humidity;BME280_pressure;Samples;Min_cycle;Max_cycle;Signal;HPM_P1;HPM_P2
2022/10/31 00:00:46;;;;;;;1.80;1.70;;;16.70;65.30;;;;;;5083488;28;20491;-71
2022/10/31 00:03:12;;;;;;;2.08;1.83;;;16.70;65.20;;;;;;5083398;28;20021;-71
2022/10/31 00:05:45;;;;;;;2.22;1.98;;;16.70;65.20;;;;;;5083400;28;20017;-70
2022/10/31 00:08:11;;;;;;;1.67;1.55;;;16.70;65.20;;;;;;5083435;28;20044;-70
2022/10/31 00:10:41;;;;;;;1.73;1.63;;;16.70;65.20;;;;;;5083363;28;20046;-68
2022/10/31 00:13:08;;;;;;;1.63;1.40;;;16.70;65.30;;;;;;5083265;28;20036;-70
2022/10/31 00:15:35;;;;;;;1.88;1.60;;;16.70;65.30;;;;;;5083280;28;20028;-70
2022/10/31 00:18:02;;;;;;;2.80;2.00;;;16.70;65.20;;;;;;5082104;28;20304;-70
2022/10/31 00:20:28;;;;;;;2.03;1.77;;;16.70;65.30;;;;;;5083228;28;20080;-70
2022/10/31 00:22:53;;;;;;;1.75;1.65;;;16.70;65.30;;;;;;5083010;28;20052;-70
2022/10/31 00:25:20;;;;;;;2.20;2.00;;;16.70;65.20;;;;;;5083169;28;20043;-70
2022/10/31 00:27:46;;;;;;;2.50;2.03;;;16.70;65.30;;;;;;5083157;28;20023;-70
2022/10/31 00:30:12;;;;;;;2.00;1.80;;;16.70;65.30;;;;;;5085079;28;20020;-70
2022/10/31 00:32:37;;;;;;;2.10;1.70;;;16.70;65.30;;;;;;5086996;28;20017;-71
2022/10/31 00:35:04;;;;;;;1.63;1.52;;;16.70;65.30;;;;;;5087016;28;20023;-68
2022/10/31 00:37:29;;;;;;;1.92;1.75;;;16.70;65.30;;;;;;5086942;28;20212;-70
2022/10/31 00:39:55;;;;;;;1.85;1.67;;;16.70;65.30;;;;;;5086915;28;20020;-70
2022/10/31 00:42:21;;;;;;;1.92;1.75;;;16.70;65.30;;;;;;5086861;28;20092;-70
2022/10/31 00:44:47;;;;;;;2.67;2.20;;;16.70;65.30;;;;;;5085622;28;20055;-68
2022/10/31 00:47:12;;;;;;;1.67;1.58;;;16.70;65.30;;;;;;5086734;28;20021;-70
2022/10/31 00:49:38;;;;;;;2.17;1.98;;;16.70;65.30;;;;;;5086693;28;20024;-70
2022/10/31 00:52:04;;;;;;;2.25;1.88;;;16.70;65.30;;;;;;5086559;28;20016;-71
2022/10/31 00:54:30;;;;;;;1.90;1.70;;;16.70;65.30;;;;;;5086642;28;20208;-71
2022/10/31 00:56:57;;;;;;;2.05;1.80;;;16.70;65.30;;;;;;5086618;28;20019;-69
2022/10/31 00:59:23;;;;;;;1.77;1.67;;;16.70;65.30;;;;;;5085404;28;20021;-70
2022/10/31 01:01:48;;;;;;;2.22;1.95;;;16.70;65.30;;;;;;5086569;28;20427;-70
2022/10/31 01:04:14;;;;;;;2.20;2.00;;;16.70;65.90;;;;;;5085313;28;20036;-71
2022/10/31 01:06:40;;;;;;;2.03;1.77;;;16.70;65.30;;;;;;5086405;28;20208;-70
2022/10/31 01:09:06;;;;;;;1.92;1.63;;;16.70;65.30;;;;;;5086376;28;20028;-68
2022/10/31 01:11:32;;;;;;;1.88;1.65;;;16.70;65.30;;;;;;5086228;28;20311;-70
2022/10/31 01:13:57;;;;;;;1.80;1.70;;;16.70;65.30;;;;;;5086294;28;20040;-70
2022/10/31 01:16:25;;;;;;;2.45;2.15;;;16.70;65.30;;;;;;5086241;28;20017;-70
2022/10/31 01:18:51;;;;;;;2.22;1.85;;;16.70;65.30;;;;;;5086238;28;20035;-68
2022/10/31 01:21:20;;;;;;;2.05;1.80;;;16.70;65.30;;;;;;5085989;28;20043;-70
2022/10/31 01:23:46;;;;;;;1.95;1.85;;;16.70;65.30;;;;;;5084978;28;20021;-70
2022/10/31 01:26:17;;;;;;;2.17;1.88;;;16.70;65.30;;;;;;5086051;28;20016;-71
2022/10/31 01:28:52;;;;;;;1.80;1.70;;;16.70;65.30;;;;;;5086051;28;20017;-71
2022/10/31 01:31:20;;;;;;;2.42;2.17;;;16.60;65.20;;;;;;5085992;28;20016;-70
2022/10/31 01:33:47;;;;;;;2.05;1.70;;;16.60;65.30;;;;;;5085884;28;20044;-71
2022/10/31 01:36:18;;;;;;;1.70;1.50;;;16.70;65.30;;;;;;5085922;28;20036;-70
2022/10/31 01:38:45;;;;;;;2.20;2.00;;;16.70;65.30;;;;;;5085902;28;20036;-70
2022/10/31 01:41:14;;;;;;;1.52;1.42;;;16.60;65.20;;;;;;5085783;28;20016;-70
2022/10/31 01:43:43;;;;;;;1.77;1.42;;;16.70;65.30;;;;;;5085750;28;20020;-71
2022/10/31 01:46:10;;;;;;;2.10;1.70;;;16.70;65.30;;;;;;5085680;28;20024;-70
2022/10/31 01:48:35;;;;;;;1.92;1.67;;;16.70;65.30;;;;;;5085670;28;20016;-68
2022/10/31 01:51:04;;;;;;;1.88;1.77;;;16.70;65.30;;;;;;5085631;28;20043;-71
2022/10/31 01:53:30;;;;;;;;;;;16.70;65.30;;;;;;5085932;28;20021;-71
2022/10/31 01:55:56;;;;;;;1.52;1.42;;;16.60;65.20;;;;;;5085557;28;19901;-70
2022/10/31 01:58:26;;;;;;;1.70;1.60;;;16.70;65.30;;;;;;5085469;28;20380;-70
2022/10/31 02:00:58;;;;;;;1.60;1.50;;;16.70;65.30;;;;;;5085428;28;20023;-70
2022/10/31 02:03:26;;;;;;;2.00;1.80;;;16.60;65.20;;;;;;5085384;28;20017;-68
2022/10/31 02:05:54;;;;;;;1.65;1.55;;;16.60;65.20;;;;;;5085322;28;20026;-70
2022/10/31 02:08:33;;;;;;;2.55;2.35;;;16.70;65.30;;;;;;5085289;28;20020;-71
2022/10/31 02:11:01;;;;;;;2.25;1.90;;;16.70;65.30;;;;;;5085241;28;20096;-68
2022/10/31 02:13:29;;;;;;;2.08;1.88;;;16.70;65.30;;;;;;5085100;28;20086;-70
2022/10/31 02:15:57;;;;;;;1.98;1.65;;;16.60;65.20;;;;;;5085189;28;20021;-70
2022/10/31 02:18:26;;;;;;;2.38;2.00;;;16.60;65.20;;;;;;5085105;28;20016;-68
2022/10/31 02:21:26;;;;;;;2.20;1.95;;;16.60;65.30;;;;;;5085019;28;20019;-70
2022/10/31 02:23:58;;;;;;;1.75;1.60;;;16.60;65.20;;;;;;5084942;28;20041;-70
2022/10/31 02:26:52;;;;;;;1.75;1.50;;;16.70;65.30;;;;;;5084912;28;20070;-70
2022/10/31 02:29:27;;;;;;;2.42;1.60;;;16.70;65.30;;;;;;5084847;28;20013;-71
2022/10/31 02:32:11;;;;;;;2.22;2.00;;;16.60;65.30;;;;;;5084726;28;20335;-71
2022/10/31 02:34:55;;;;;;;1.88;1.50;;;16.70;65.30;;;;;;5084809;28;20074;-71
2022/10/31 02:37:33;;;;;;;2.33;1.77;;;16.60;65.30;;;;;;5084639;28;20058;-68
2022/10/31 02:40:14;;;;;;;2.20;1.90;;;16.60;65.30;;;;;;5084675;28;20016;-68
2022/10/31 02:42:50;;;;;;;1.70;1.60;;;16.60;65.30;;;;;;5084610;28;20031;-68
2022/10/31 02:45:47;;;;;;;2.17;1.77;;;16.60;65.30;;;;;;5084568;28;20021;-68
2022/10/31 02:48:20;;;;;;;2.65;2.22;;;16.60;65.30;;;;;;5053272;28;20040;-68
2022/10/31 02:51:01;;;;;;;1.70;1.60;;;16.60;65.30;;;;;;5084449;28;20043;-68
2022/10/31 02:53:35;;;;;;;2.05;1.75;;;16.60;65.30;;;;;;5083847;28;20025;-68
2022/10/31 02:56:06;;;;;;;1.83;1.73;;;16.60;65.30;;;;;;5084387;28;20080;-68
2022/10/31 02:58:37;;;;;;;1.65;1.55;;;16.60;65.20;;;;;;5084343;28;20355;-68
2022/10/31 03:01:06;;;;;;;1.48;1.35;;;16.60;65.20;;;;;;5083120;28;20266;-68
2022/10/31 03:03:38;;;;;;;1.73;1.63;;;16.60;65.20;;;;;;5084197;28;20021;-70
2022/10/31 03:06:14;;;;;;;1.65;1.48;;;16.60;65.30;;;;;;5084102;28;20031;-68
2022/10/31 03:08:57;;;;;;;1.77;1.67;;;16.60;65.20;;;;;;5084164;28;20024;-68
2022/10/31 03:11:31;;;;;;;1.98;1.65;;;16.60;65.20;;;;;;5084101;28;20016;-70
2022/10/31 03:14:23;;;;;;;1.90;1.60;;;16.60;65.20;;;;;;5084071;28;20017;-70
2022/10/31 03:16:52;;;;;;;2.67;2.28;;;16.60;65.20;;;;;;5083957;28;20020;-68
2022/10/31 03:19:20;;;;;;;1.80;1.70;;;16.60;65.30;;;;;;5083970;28;20023;-68
2022/10/31 03:21:51;;;;;;;1.58;1.48;;;16.60;65.30;;;;;;5083725;28;20071;-68
2022/10/31 03:24:20;;;;;;;1.83;1.65;;;16.60;65.30;;;;;;5083857;28;20024;-68
2022/10/31 03:26:54;;;;;;;1.75;1.65;;;16.70;65.30;;;;;;5083799;28;20046;-68
2022/10/31 03:29:25;;;;;;;2.17;1.98;;;16.60;65.30;;;;;;5083831;28;20012;-68
2022/10/31 03:32:34;;;;;;;1.55;1.42;;;16.60;65.90;;;;;;5083729;28;20027;-71
2022/10/31 03:35:03;;;;;;;1.80;1.70;;;16.60;65.20;;;;;;5076455;28;20029;-71
2022/10/31 03:37:32;;;;;;;1.70;1.60;;;16.60;65.30;;;;;;5083708;28;20013;-70
2022/10/31 03:40:00;;;;;;;1.67;1.55;;;16.60;65.30;;;;;;5083673;28;20016;-71
2022/10/31 03:42:29;;;;;;;1.77;1.67;;;16.60;65.30;;;;;;5083613;28;20027;-69
2022/10/31 03:45:07;;;;;;;2.30;2.08;;;16.60;65.30;;;;;;5083602;28;20034;-69
2022/10/31 03:47:36;;;;;;;2.70;1.80;;;16.60;65.30;;;;;;5083936;28;20043;-69
2022/10/31 03:50:03;;;;;;;1.85;1.67;;;16.60;65.30;;;;;;5083549;28;20016;-68
2022/10/31 03:52:49;;;;;;;1.67;1.58;;;16.60;65.30;;;;;;5083422;28;20020;-69
2022/10/31 03:55:39;;;;;;;1.65;1.50;;;16.60;65.30;;;;;;5083527;28;20039;-68
2022/10/31 03:58:11;;;;;;;1.90;1.63;;;16.60;65.30;;;;;;5083484;28;20027;-69
2022/10/31 04:00:40;;;;;;;1.92;1.77;;;16.60;65.30;;;;;;5082316;28;20016;-69
2022/10/31 04:03:11;;;;;;;1.88;1.70;;;16.60;65.30;;;;;;5083443;28;20016;-68
2022/10/31 04:05:38;;;;;;;1.50;1.40;;;16.60;65.20;;;;;;5086255;28;20020;-68
2022/10/31 04:08:09;;;;;;;1.98;1.83;;;16.60;65.20;;;;;;5087547;28;20247;-68
2022/10/31 04:10:37;;;;;;;1.80;1.70;;;16.60;65.20;;;;;;5087561;28;20026;-68
2022/10/31 04:13:10;;;;;;;1.83;1.63;;;16.60;65.20;;;;;;5087436;28;20020;-69
2022/10/31 04:15:38;;;;;;;1.55;1.45;;;16.60;65.20;;;;;;5087432;28;20024;-69
2022/10/31 04:18:05;;;;;;;1.77;1.50;;;16.60;65.30;;;;;;5087373;28;20039;-69
2022/10/31 04:20:39;;;;;;;1.88;1.73;;;16.60;65.30;;;;;;5087356;28;20193;-68
2022/10/31 04:23:15;;;;;;;2.05;1.85;;;16.60;65.30;;;;;;5086762;28;20111;-69
2022/10/31 04:25:41;;;;;;;1.77;1.67;;;16.60;65.20;;;;;;5087269;28;20079;-69
2022/10/31 04:28:07;;;;;;;1.90;1.63;;;16.60;65.20;;;;;;5087172;28;20024;-69
2022/10/31 04:30:33;;;;;;;2.05;1.85;;;16.60;65.30;;;;;;5087122;28;20189;-69
2022/10/31 04:32:58;;;;;;;2.33;1.67;;;16.60;65.30;;;;;;5087034;28;20213;-69
2022/10/31 04:35:24;;;;;;;1.60;1.50;;;16.60;65.30;;;;;;5087051;28;20020;-69
2022/10/31 04:37:50;;;;;;;2.30;2.10;;;16.60;65.30;;;;;;5086994;28;20021;-68
2022/10/31 04:40:16;;;;;;;1.92;1.73;;;16.60;65.30;;;;;;5086991;28;20058;-70
2022/10/31 04:42:41;;;;;;;1.92;1.52;;;16.60;65.30;;;;;;5086918;28;20083;-68
2022/10/31 04:45:07;;;;;;;1.48;1.38;;;16.60;65.20;;;;;;5086862;28;20028;-68
2022/10/31 04:47:33;;;;;;;1.73;1.63;;;16.60;65.30;;;;;;5086805;28;20040;-68
2022/10/31 04:50:00;;;;;;;1.50;1.40;;;16.60;65.30;;;;;;5086773;28;20223;-68
2022/10/31 04:52:26;;;;;;;1.70;1.50;;;16.60;65.30;;;;;;5086654;28;20085;-68
2022/10/31 04:54:51;;;;;;;1.88;1.65;;;16.60;65.30;;;;;;5086666;28;20247;-68
2022/10/31 04:57:17;;;;;;;1.77;1.67;;;16.60;65.20;;;;;;5086628;28;20051;-69
2022/10/31 04:59:43;;;;;;;1.83;1.67;;;16.60;65.20;;;;;;5086612;28;20193;-68
2022/10/31 05:02:09;;;;;;;1.83;1.73;;;16.60;65.20;;;;;;5086527;28;20312;-69
2022/10/31 05:04:34;;;;;;;2.13;1.70;;;16.60;65.30;;;;;;5086463;28;20028;-68
2022/10/31 05:07:00;;;;;;;1.83;1.73;;;16.60;65.30;;;;;;5086454;28;20028;-68
2022/10/31 05:09:26;;;;;;;2.10;1.90;;;16.60;65.30;;;;;;5086384;28;20028;-68
2022/10/31 05:11:52;;;;;;;2.28;1.98;;;16.60;65.30;;;;;;5086245;28;20016;-69
2022/10/31 05:14:17;;;;;;;1.33;1.23;;;16.60;65.30;;;;;;5086363;28;20016;-69
2022/10/31 05:16:43;;;;;;;1.85;1.75;;;16.60;65.20;;;;;;5085842;28;20178;-69
2022/10/31 05:19:09;;;;;;;1.70;1.60;;;16.60;65.30;;;;;;5086207;28;20025;-69
2022/10/31 05:21:34;;;;;;;1.70;1.60;;;16.60;65.30;;;;;;5086005;28;20118;-69
2022/10/31 05:24:00;;;;;;;2.20;1.60;;;16.60;65.20;;;;;;5086164;28;20074;-69
2022/10/31 05:26:26;;;;;;;2.20;2.00;;;16.60;65.30;;;;;;5086091;28;20020;-68
2022/10/31 05:28:52;;;;;;;2.30;2.10;;;16.60;65.30;;;;;;5086027;28;20020;-68
2022/10/31 05:31:17;;;;;;;1.50;1.40;;;16.60;65.90;;;;;;5086001;28;20017;-68
2022/10/31 05:33:43;;;;;;;1.98;1.55;;;16.60;65.30;;;;;;5085918;28;20032;-68
2022/10/31 05:36:09;;;;;;;1.42;1.33;;;16.60;65.30;;;;;;5085943;28;20032;-68
2022/10/31 05:38:35;;;;;;;1.80;1.70;;;16.60;65.20;;;;;;5085909;28;20216;-68
2022/10/31 05:41:00;;;;;;;2.05;1.70;;;16.60;65.30;;;;;;5085877;28;20204;-68
2022/10/31 05:43:27;;;;;;;1.58;1.40;;;16.60;65.20;;;;;;5085796;28;20300;-68
2022/10/31 05:45:54;;;;;;;1.42;1.33;;;16.60;65.20;;;;;;5085747;28;20012;-68
2022/10/31 05:48:20;;;;;;;1.60;1.50;;;16.60;65.20;;;;;;5085745;28;20033;-68
2022/10/31 05:50:48;;;;;;;1.67;1.58;;;16.60;65.20;;;;;;5085682;28;20088;-70
2022/10/31 05:53:14;;;;;;;1.77;1.67;;;16.60;65.30;;;;;;5085509;28;20335;-68
2022/10/31 05:55:42;;;;;;;2.00;1.60;;;16.60;65.20;;;;;;5085559;28;20080;-70
2022/10/31 05:58:08;;;;;;;;;;;16.60;65.20;;;;;;5085977;28;20028;-68
2022/10/31 06:00:34;;;;;;;1.73;1.58;;;16.60;65.20;;;;;;5085492;28;19908;-68
2022/10/31 06:03:02;;;;;;;1.63;1.52;;;16.60;65.30;;;;;;5085442;28;20020;-68
2022/10/31 06:05:29;;;;;;;2.22;2.03;;;16.60;65.30;;;;;;5085378;28;20084;-68
2022/10/31 06:07:55;;;;;;;2.05;1.40;;;16.60;65.20;;;;;;5085317;28;20318;-68
2022/10/31 06:10:22;;;;;;;1.98;1.77;;;16.60;65.20;;;;;;5085262;28;20051;-68
2022/10/31 06:12:49;;;;;;;2.30;2.10;;;16.60;65.30;;;;;;5085145;28;20062;-68
2022/10/31 06:15:15;;;;;;;2.13;1.90;;;16.60;65.30;;;;;;5085155;28;20312;-68
2022/10/31 06:17:41;;;;;;;2.15;1.60;;;16.60;65.30;;;;;;5085166;28;20016;-68
2022/10/31 06:20:07;;;;;;;1.67;1.55;;;16.60;65.30;;;;;;5085068;28;20362;-69
2022/10/31 06:22:33;;;;;;;1.70;1.60;;;16.60;65.30;;;;;;5084849;28;20048;-69
2022/10/31 06:24:59;;;;;;;1.50;1.40;;;16.60;65.30;;;;;;5084910;28;20292;-68
2022/10/31 06:27:25;;;;;;;1.98;1.80;;;16.60;65.30;;;;;;5084082;28;20076;-68
2022/10/31 06:29:51;;;;;;;1.70;1.55;;;16.60;65.30;;;;;;5084905;28;20207;-68
2022/10/31 06:32:17;;;;;;;1.58;1.48;;;16.60;65.30;;;;;;5084770;28;20020;-68
2022/10/31 06:34:44;;;;;;;1.52;1.42;;;16.60;65.30;;;;;;5084817;28;20027;-68
2022/10/31 06:37:11;;;;;;;1.75;1.60;;;16.50;65.20;;;;;;5084765;28;20079;-68
2022/10/31 06:39:38;;;;;;;1.48;1.38;;;16.60;65.30;;;;;;5084704;28;20016;-68
2022/10/31 06:42:05;;;;;;;1.95;1.75;;;16.60;65.20;;;;;;5084683;28;20268;-68
2022/10/31 06:44:31;;;;;;;1.70;1.50;;;16.60;65.20;;;;;;5083424;28;20090;-68
2022/10/31 06:46:57;;;;;;;1.98;1.77;;;16.60;65.20;;;;;;5084533;28;20021;-69
2022/10/31 06:49:22;;;;;;;1.58;1.48;;;16.60;65.20;;;;;;5084486;28;20040;-71
2022/10/31 06:51:49;;;;;;;1.50;1.40;;;16.60;65.20;;;;;;5084334;28;20020;-68
2022/10/31 06:54:16;;;;;;;1.70;1.60;;;16.60;65.30;;;;;;5083224;28;20216;-68
2022/10/31 06:56:42;;;;;;;1.60;1.50;;;16.60;65.30;;;;;;5084350;28;20012;-68
2022/10/31 06:59:07;;;;;;;1.52;1.42;;;16.60;65.20;;;;;;5084303;28;20077;-68
2022/10/31 07:01:33;;;;;;;2.20;1.88;;;16.60;65.20;;;;;;5084262;28;20201;-70
2022/10/31 07:03:59;;;;;;;1.50;1.40;;;16.60;65.20;;;;;;5084225;28;20050;-69
2022/10/31 07:06:25;;;;;;;1.60;1.50;;;16.60;65.20;;;;;;5084155;28;20020;-68
2022/10/31 07:08:51;;;;;;;2.00;1.65;;;16.60;65.30;;;;;;5084143;28;20320;-68
2022/10/31 07:11:16;;;;;;;1.55;1.45;;;16.50;65.20;;;;;;5084077;28;20324;-70
2022/10/31 07:13:42;;;;;;;2.03;1.80;;;16.60;65.30;;;;;;5083953;28;20031;-69
2022/10/31 07:16:10;;;;;;;1.50;1.40;;;16.50;65.30;;;;;;5083979;28;20064;-71
2022/10/31 07:18:36;;;;;;;2.30;1.73;;;16.60;65.30;;;;;;5083660;28;20297;-71
2022/10/31 07:21:02;;;;;;;1.75;1.65;;;16.60;65.20;;;;;;5083925;28;20197;-67
2022/10/31 07:23:28;;;;;;;1.88;1.73;;;16.60;65.20;;;;;;5083659;28;20078;-70
2022/10/31 07:25:58;;;;;;;1.50;1.40;;;16.60;65.20;;;;;;5083855;28;20054;-70
2022/10/31 07:28:26;;;;;;;1.98;1.77;;;16.60;65.20;;;;;;5084035;28;20056;-68
2022/10/31 07:30:53;;;;;;;2.33;1.75;;;16.60;65.20;;;;;;5083789;28;20065;-71
2022/10/31 07:33:19;;;;;;;1.65;1.55;;;16.60;65.20;;;;;;5083693;28;20042;-71
2022/10/31 07:35:45;;;;;;;1.77;1.65;;;16.60;65.20;;;;;;5083712;28;20020;-70
2022/10/31 07:38:13;;;;;;;1.70;1.60;;;16.60;65.10;;;;;;5083576;28;20250;-70
2022/10/31 07:40:40;;;;;;;1.73;1.60;;;16.60;65.10;;;;;;5083692;28;20017;-70
2022/10/31 07:43:06;;;;;;;2.05;1.60;;;16.60;65.10;;;;;;5083648;28;20062;-70
2022/10/31 07:45:32;;;;;;;1.58;1.48;;;16.60;65.10;;;;;;5083620;28;20368;-70
2022/10/31 07:47:57;;;;;;;1.70;1.60;;;16.60;65.10;;;;;;5083638;28;20220;-70
2022/10/31 07:50:26;;;;;;;1.55;1.45;;;16.60;65.00;;;;;;5083564;28;20013;-70
2022/10/31 07:53:02;;;;;;;;;;;16.60;65.00;;;;;;5083915;28;20020;-71
2022/10/31 07:55:30;;;;;;;1.35;1.25;;;16.60;65.00;;;;;;5083534;28;19900;-70
2022/10/31 07:58:03;;;;;;;1.48;1.38;;;16.60;65.10;;;;;;5083493;28;20078;-68
2022/10/31 08:00:30;;;;;;;2.10;1.90;;;16.60;65.10;;;;;;5083508;28;20103;-71
2022/10/31 08:03:00;;;;;;;2.00;1.80;;;16.60;65.10;;;;;;5083465;28;20025;-70
2022/10/31 08:05:27;;;;;;;1.77;1.48;;;16.60;65.00;;;;;;5083402;28;20021;-70
2022/10/31 08:07:53;;;;;;;1.88;1.50;;;16.60;65.00;;;;;;5083401;28;20020;-71
2022/10/31 08:10:19;;;;;;;2.13;1.83;;;16.60;65.00;;;;;;5083363;28;20249;-71
2022/10/31 08:12:45;;;;;;;2.28;1.90;;;16.60;65.00;;;;;;5083271;28;20080;-70
2022/10/31 08:15:11;;;;;;;2.10;1.77;;;16.60;65.70;;;;;;5083301;28;20023;-70
2022/10/31 08:17:37;;;;;;;1.88;1.60;;;16.60;65.10;;;;;;5082143;28;20355;-70
2022/10/31 08:20:04;;;;;;;1.60;1.50;;;16.60;65.10;;;;;;5083282;28;20016;-70
2022/10/31 08:22:30;;;;;;;2.03;1.83;;;16.60;65.10;;;;;;5083081;28;20264;-70
2022/10/31 08:24:56;;;;;;;1.92;1.60;;;16.60;65.10;;;;;;5083236;28;20056;-70
2022/10/31 08:27:22;;;;;;;1.73;1.60;;;16.60;65.00;;;;;;5082092;28;20334;-71
2022/10/31 08:29:48;;;;;;;1.90;1.70;;;16.60;65.00;;;;;;5083209;28;20016;-70
2022/10/31 08:32:14;;;;;;;1.83;1.65;;;16.60;65.00;;;;;;5083087;28;20312;-70
2022/10/31 08:34:40;;;;;;;2.15;1.60;;;16.60;65.00;;;;;;5083166;28;20114;-70
2022/10/31 08:37:06;;;;;;;1.42;1.33;;;16.60;65.00;;;;;;5083128;28;20197;-70
2022/10/31 08:39:31;;;;;;;1.38;1.27;;;16.60;65.10;;;;;;5083089;28;20034;-70
2022/10/31 08:41:57;;;;;;;1.73;1.50;;;16.60;65.00;;;;;;5083067;28;20330;-70
2022/10/31 08:44:23;;;;;;;1.63;1.48;;;16.60;65.10;;;;;;5083055;28;20023;-70
2022/10/31 08:46:49;;;;;;;1.63;1.52;;;16.60;65.00;;;;;;5083021;28;20020;-70
2022/10/31 08:49:14;;;;;;;1.40;1.30;;;16.60;65.00;;;;;;5083001;28;20024;-70
2022/10/31 08:51:40;;;;;;;1.80;1.70;;;16.60;64.90;;;;;;5085489;28;20020;-70
2022/10/31 08:54:06;;;;;;;1.50;1.40;;;16.60;65.00;;;;;;5086698;28;20047;-71
2022/10/31 08:56:32;;;;;;;1.90;1.70;;;16.60;65.00;;;;;;5086638;28;20021;-70
2022/10/31 08:58:58;;;;;;;1.42;1.33;;;16.60;64.90;;;;;;5086590;28;20024;-71
2022/10/31 09:01:23;;;;;;;1.38;1.27;;;16.60;65.00;;;;;;5086530;28;20084;-71
2022/10/31 09:03:49;;;;;;;1.70;1.60;;;16.60;65.00;;;;;;5086523;28;20040;-70
2022/10/31 09:06:15;;;;;;;2.28;1.80;;;16.70;65.00;;;;;;5086451;28;20031;-70
2022/10/31 09:08:41;;;;;;;1.88;1.67;;;16.60;65.00;;;;;;5086449;28;20025;-70
2022/10/31 09:11:07;;;;;;;1.88;1.73;;;16.60;65.00;;;;;;5086385;28;20027;-70
2022/10/31 09:13:32;;;;;;;1.60;1.50;;;16.60;65.10;;;;;;5086292;28;20027;-70
2022/10/31 09:15:58;;;;;;;1.38;1.27;;;16.60;65.00;;;;;;5086326;28;20415;-70
2022/10/31 09:18:25;;;;;;;1.60;1.50;;;16.60;65.00;;;;;;5086248;28;20018;-69
2022/10/31 09:20:51;;;;;;;1.92;1.70;;;16.60;65.00;;;;;;5086252;28;20016;-70
2022/10/31 09:23:22;;;;;;;1.63;1.52;;;16.60;65.00;;;;;;5086040;28;20040;-70
2022/10/31 09:25:50;;;;;;;1.67;1.58;;;16.70;65.00;;;;;;5086177;28;20020;-70
2022/10/31 09:28:18;;;;;;;1.70;1.60;;;16.60;64.90;;;;;;5086103;28;20030;-70
2022/10/31 09:30:47;;;;;;;1.73;1.63;;;16.70;65.00;;;;;;5086063;28;20239;-70
2022/10/31 09:33:13;;;;;;;;;;;16.70;65.00;;;;;;5086354;28;20079;-70
2022/10/31 09:35:40;;;;;;;1.60;1.50;;;16.70;65.10;;;;;;5085987;28;19901;-70
2022/10/31 09:38:09;;;;;;;1.17;1.13;;;16.70;65.10;;;;;;5085923;28;20023;-68
2022/10/31 09:40:39;;;;;;;1.58;1.48;;;16.70;65.10;;;;;;5085869;28;20335;-70
2022/10/31 09:43:41;;;;;;;1.60;1.50;;;16.60;65.10;;;;;;5085873;28;20028;-67
2022/10/31 09:46:48;;;;;;;1.83;1.60;;;16.60;65.20;;;;;;5085781;28;20016;-71
2022/10/31 09:49:32;;;;;;;1.63;1.52;;;16.60;65.20;;;;;;5077424;28;20086;-70
2022/10/31 09:52:10;;;;;;;1.92;1.77;;;16.60;65.20;;;;;;5085561;28;20307;-70
2022/10/31 09:54:46;;;;;;;1.88;1.65;;;16.60;65.20;;;;;;5085622;28;20308;-70
2022/10/31 09:57:16;;;;;;;1.80;1.40;;;16.60;65.30;;;;;;5085608;28;20020;-70
2022/10/31 09:59:44;;;;;;;3.65;1.60;;;16.60;65.40;;;;;;5085534;28;20040;-68
2022/10/31 10:02:17;;;;;;;1.33;1.20;;;16.60;65.30;;;;;;5084254;28;20047;-70
2022/10/31 10:05:03;;;;;;;2.50;2.00;;;16.60;65.30;;;;;;5085456;28;20024;-70
2022/10/31 10:07:40;;;;;;;2.08;1.60;;;16.60;65.40;;;;;;5085400;28;20035;-70
2022/10/31 10:10:17;;;;;;;1.60;1.50;;;16.50;65.50;;;;;;5085327;28;20013;-70
2022/10/31 10:12:46;;;;;;;1.83;1.63;;;16.60;65.50;;;;;;5085234;28;20044;-70
2022/10/31 10:15:28;;;;;;;;;;;16.60;65.40;;;;;;5085705;28;20013;-70
2022/10/31 10:18:09;;;;;;;1.67;1.58;;;16.60;65.30;;;;;;5085176;28;20210;-71
2022/10/31 10:20:47;;;;;;;2.35;2.15;;;16.60;65.30;;;;;;5083976;28;20023;-71
2022/10/31 10:23:18;;;;;;;1.60;1.50;;;16.60;65.30;;;;;;5085149;28;20370;-69
2022/10/31 10:25:48;;;;;;;1.40;1.30;;;16.50;65.50;;;;;;5085042;28;20036;-68
2022/10/31 10:28:21;;;;;;;2.20;2.00;;;16.60;65.50;;;;;;5084921;28;20016;-70
2022/10/31 10:31:28;;;;;;;1.55;1.45;;;16.60;65.50;;;;;;5083729;28;20027;-68
2022/10/31 10:34:06;;;;;;;2.08;1.67;;;16.60;65.30;;;;;;5023060;28;20033;-68
2022/10/31 10:36:45;;;;;;;1.52;1.42;;;16.60;65.20;;;;;;5079649;28;20032;-68
2022/10/31 10:39:57;;;;;;;1.50;1.40;;;16.70;65.20;;;;;;5084781;28;20016;-68
2022/10/31 10:48:35;;;;;;;1.63;1.52;;;16.70;65.00;;;;;;5084601;28;20095;-68
2022/10/31 10:51:03;;;;;;;2.22;1.83;;;16.70;64.90;;;;;;5084522;28;20016;-68
2022/10/31 10:54:01;;;;;;;1.65;1.55;;;16.70;64.90;;;;;;5084382;28;20028;-68
2022/10/31 10:56:50;;;;;;;2.10;1.90;;;16.70;64.90;;;;;;5084409;28;20021;-68
2022/10/31 10:59:21;;;;;;;1.67;1.42;;;16.70;64.90;;;;;;5084284;28;20043;-68
2022/10/31 11:01:49;;;;;;;1.88;1.65;;;16.70;64.90;;;;;;5084366;28;20017;-68
2022/10/31 11:04:31;;;;;;;1.63;1.45;;;16.70;65.00;;;;;;5084269;28;20055;-68
2022/10/31 11:07:00;;;;;;;1.77;1.67;;;16.70;64.90;;;;;;5084227;28;20030;-68
2022/10/31 11:09:25;;;;;;;2.58;1.92;;;16.70;64.90;;;;;;5084131;28;20316;-68
2022/10/31 11:11:51;;;;;;;1.65;1.55;;;16.70;64.90;;;;;;5084033;28;20073;-68
2022/10/31 11:14:17;;;;;;;2.05;1.70;;;16.70;64.80;;;;;;5083694;28;20036;-68
2022/10/31 11:16:47;;;;;;;1.60;1.50;;;16.70;64.90;;;;;;5084015;28;20189;-68
2022/10/31 11:19:27;;;;;;;1.52;1.40;;;16.70;65.00;;;;;;5084013;28;20209;-68
2022/10/31 11:21:53;;;;;;;1.70;1.60;;;16.70;65.60;;;;;;5083803;28;20052;-68
2022/10/31 11:24:27;;;;;;;1.83;1.70;;;16.70;64.90;;;;;;5083968;28;20012;-68
2022/10/31 11:27:30;;;;;;;1.85;1.58;;;16.70;64.90;;;;;;5083922;28;20204;-70
2022/10/31 11:30:06;;;;;;;1.48;1.38;;;16.70;65.00;;;;;;5080806;28;20028;-69
2022/10/31 11:32:32;;;;;;;2.33;1.77;;;16.70;65.00;;;;;;5083687;28;20070;-69
2022/10/31 11:35:02;;;;;;;1.58;1.48;;;16.70;64.90;;;;;;5083757;28;20012;-68
2022/10/31 11:37:31;;;;;;;1.73;1.60;;;16.70;64.90;;;;;;5084042;28;20013;-68
2022/10/31 11:40:00;;;;;;;2.00;1.70;;;16.70;65.00;;;;;;5083749;28;20020;-68
2022/10/31 11:42:38;;;;;;;2.17;1.98;;;16.70;65.00;;;;;;5082499;28;20023;-68
2022/10/31 11:45:12;;;;;;;;;;;16.70;65.00;;;;;;5084117;28;20020;-68
2022/10/31 11:47:43;;;;;;;2.00;1.48;;;16.70;65.00;;;;;;5083675;28;20189;-68
2022/10/31 11:50:11;;;;;;;1.95;1.58;;;16.70;65.00;;;;;;5083623;28;20027;-69
2022/10/31 11:52:39;;;;;;;1.65;1.55;;;16.70;65.00;;;;;;5083502;28;20212;-68
2022/10/31 11:55:36;;;;;;;1.88;1.70;;;16.70;65.00;;;;;;5083524;28;20026;-68
2022/10/31 11:58:03;;;;;;;1.80;1.45;;;16.70;65.00;;;;;;5082376;28;20212;-69
2022/10/31 12:00:36;;;;;;;2.30;1.92;;;16.70;65.00;;;;;;5083493;28;20208;-68
2022/10/31 12:03:15;;;;;;;1.60;1.45;;;16.70;65.10;;;;;;5083486;28;20024;-68
2022/10/31 12:05:44;;;;;;;1.80;1.65;;;16.70;65.00;;;;;;5082359;28;20016;-68
2022/10/31 12:08:12;;;;;;;1.48;1.38;;;16.70;65.00;;;;;;5082307;28;20125;-68
2022/10/31 12:11:19;;;;;;;2.30;2.10;;;16.70;65.10;;;;;;5083427;28;20044;-68
2022/10/31 12:13:45;;;;;;;2.00;1.80;;;16.60;65.10;;;;;;5083321;28;20059;-68
2022/10/31 12:16:34;;;;;;;1.75;1.65;;;16.60;65.10;;;;;;5083337;28;20320;-68
2022/10/31 12:19:17;;;;;;;1.70;1.52;;;16.60;65.20;;;;;;5083368;28;20283;-68
2022/10/31 12:22:01;;;;;;;1.67;1.55;;;16.70;65.10;;;;;;5083142;28;20021;-69
2022/10/31 12:24:30;;;;;;;1.70;1.60;;;16.70;65.10;;;;;;5083291;28;20016;-69
2022/10/31 12:27:14;;;;;;;;;;;16.70;65.00;;;;;;5086859;28;20082;-68
2022/10/31 12:30:01;;;;;;;1.80;1.65;;;16.70;65.10;;;;;;5087271;28;20191;-71
2022/10/31 12:32:48;;;;;;;1.60;1.50;;;16.70;65.10;;;;;;5087121;28;20051;-70
2022/10/31 12:35:32;;;;;;;2.45;1.80;;;16.70;65.20;;;;;;5087152;28;20308;-71
2022/10/31 12:38:49;;;;;;;1.70;1.60;;;16.70;65.10;;;;;;5087128;28;20028;-70
2022/10/31 12:41:28;;;;;;;1.35;1.25;;;16.70;65.10;;;;;;5083049;28;20027;-70
2022/10/31 12:44:06;;;;;;;1.52;1.42;;;16.70;65.10;;;;;;5087002;28;20020;-71
2022/10/31 12:47:23;;;;;;;2.20;1.55;;;16.60;65.00;;;;;;5086948;28;20045;-70
2022/10/31 12:49:51;;;;;;;1.65;1.55;;;16.70;65.20;;;;;;5025217;28;20092;-67
2022/10/31 12:52:41;;;;;;;1.52;1.42;;;16.70;65.10;;;;;;5025088;28;20057;-70
2022/10/31 12:55:39;;;;;;;1.55;1.40;;;16.70;65.10;;;;;;5070024;28;20263;-67
2022/10/31 12:58:17;;;;;;;1.50;1.40;;;16.70;65.10;;;;;;5086714;28;20021;-70
2022/10/31 13:00:48;;;;;;;2.33;1.52;;;16.70;65.10;;;;;;5085566;28;20021;-71
2022/10/31 13:04:03;;;;;;;1.40;1.30;;;16.70;65.10;;;;;;5086610;28;20024;-70
2022/10/31 13:07:04;;;;;;;2.63;1.92;;;16.60;65.10;;;;;;5024850;28;20121;-70
2022/10/31 13:09:49;;;;;;;1.60;1.50;;;16.60;65.10;;;;;;5086205;28;20043;-68
2022/10/31 13:12:19;;;;;;;1.70;1.60;;;16.70;65.20;;;;;;5086331;28;20021;-68
2022/10/31 13:14:55;;;;;;;1.25;1.15;;;16.60;65.20;;;;;;5086389;28;20371;-70